sensor_id;sensor_type;location;lat;lon;timestamp;temperature;humidity
35970;DHT22;22448;51.298;6.430;2022-12-20T00:01:31;10.20;99.90
35970;DHT22;22448;51.298;6.430;2022-12-20T00:04:01;10.20;99.90
35970;DHT22;22448;51.298;6.430;2022-12-20T00:06:28;10.20;99.90
35970;DHT22;22448;51.298;6.430;2022-12-20T00:08:57;10.20;99.90
35970;DHT22;22448;51.298;6.430;2022-12-20T00:11:26;10.30;99.90
35970;DHT22;22448;51.298;6.430;2022-12-20T00:13:54;10.30;99.90
35970;DHT22;22448;51.298;6.430;2022-12-20T00:16:23;10.30;99.90
35970;DHT22;22448;51.298;6.430;2022-12-20T00:18:55;10.30;99.90
35970;DHT22;22448;51.298;6.430;2022-12-20T00:21:23;10.30;99.90
35970;DHT22;22448;51.298;6.430;2022-12-20T00:23:51;10.30;99.90
35970;DHT22;22448;51.298;6.430;2022-12-20T00:26:24;10.30;99.90
35970;DHT22;22448;51.298;6.430;2022-12-20T00:28:52;10.20;99.90
35970;DHT22;22448;51.298;6.430;2022-12-20T00:31:21;10.20;99.90
35970;DHT22;22448;51.298;6.430;2022-12-20T00:33:50;10.20;99.90
35970;DHT22;22448;51.298;6.430;2022-12-20T00:36:19;10.20;99.90
35970;DHT22;22448;51.298;6.430;2022-12-20T00:38:47;10.20;99.90
35970;DHT22;22448;51.298;6.430;2022-12-20T00:41:17;10.20;99.90
35970;DHT22;22448;51.298;6.430;2022-12-20T00:43:44;10.20;99.90
35970;DHT22;22448;51.298;6.430;2022-12-20T00:46:13;10.30;99.90
35970;DHT22;22448;51.298;6.430;2022-12-20T00:48:39;10.30;99.90
35970;DHT22;22448;51.298;6.430;2022-12-20T00:51:12;10.30;99.90
35970;DHT22;22448;51.298;6.430;2022-12-20T00:53:40;10.30;99.90
35970;DHT22;22448;51.298;6.430;2022-12-20T00:56:08;10.30;99.90
35970;DHT22;22448;51.298;6.430;2022-12-20T00:58:37;10.40;99.90
35970;DHT22;22448;51.298;6.430;2022-12-20T01:01:06;10.50;99.90
35970;DHT22;22448;51.298;6.430;2022-12-20T01:03:39;10.50;99.90
35970;DHT22;22448;51.298;6.430;2022-12-20T01:06:07;10.50;99.90
35970;DHT22;22448;51.298;6.430;2022-12-20T01:08:34;10.60;99.90
35970;DHT22;22448;51.298;6.430;2022-12-20T01:13:34;10.50;99.90
35970;DHT22;22448;51.298;6.430;2022-12-20T01:16:21;10.50;99.90
35970;DHT22;22448;51.298;6.430;2022-12-20T01:18:51;10.60;99.90
35970;DHT22;22448;51.298;6.430;2022-12-20T01:21:19;10.60;99.90
35970;DHT22;22448;51.298;6.430;2022-12-20T01:23:47;10.60;99.90
35970;DHT22;22448;51.298;6.430;2022-12-20T01:26:16;10.60;99.90
35970;DHT22;22448;51.298;6.430;2022-12-20T01:28:46;10.60;99.90
35970;DHT22;22448;51.298;6.430;2022-12-20T01:31:15;10.70;99.90
35970;DHT22;22448;51.298;6.430;2022-12-20T01:33:43;10.70;99.90
35970;DHT22;22448;51.298;6.430;2022-12-20T01:36:14;10.70;99.90
35970;DHT22;22448;51.298;6.430;2022-12-20T01:38:42;10.70;99.90
35970;DHT22;22448;51.298;6.430;2022-12-20T01:41:15;10.80;99.90
35970;DHT22;22448;51.298;6.430;2022-12-20T01:46:39;10.70;99.90
35970;DHT22;22448;51.298;6.430;2022-12-20T01:49:19;10.70;99.90
35970;DHT22;22448;51.298;6.430;2022-12-20T01:51:56;10.60;99.90
35970;DHT22;22448;51.298;6.430;2022-12-20T01:54:29;10.60;99.90
35970;DHT22;22448;51.298;6.430;2022-12-20T01:57:00;10.60;99.90
35970;DHT22;22448;51.298;6.430;2022-12-20T01:59:28;10.60;99.90
35970;DHT22;22448;51.298;6.430;2022-12-20T02:01:57;10.70;99.90
35970;DHT22;22448;51.298;6.430;2022-12-20T02:04:26;10.70;99.90
35970;DHT22;22448;51.298;6.430;2022-12-20T02:06:53;10.70;99.90
35970;DHT22;22448;51.298;6.430;2022-12-20T02:09:20;10.80;99.90
35970;DHT22;22448;51.298;6.430;2022-12-20T02:15:20;10.90;99.90
35970;DHT22;22448;51.298;6.430;2022-12-20T02:21:11;10.90;99.90
35970;DHT22;22448;51.298;6.430;2022-12-20T02:24:04;10.90;99.90
35970;DHT22;22448;51.298;6.430;2022-12-20T02:27:00;10.70;99.90
35970;DHT22;22448;51.298;6.430;2022-12-20T02:30:04;10.70;99.90
35970;DHT22;22448;51.298;6.430;2022-12-20T02:35:04;10.70;99.90
35970;DHT22;22448;51.298;6.430;2022-12-20T02:37:33;10.60;99.90
35970;DHT22;22448;51.298;6.430;2022-12-20T02:40:01;10.60;99.90
35970;DHT22;22448;51.298;6.430;2022-12-20T02:42:31;10.60;99.90
35970;DHT22;22448;51.298;6.430;2022-12-20T02:45:04;10.50;99.90
35970;DHT22;22448;51.298;6.430;2022-12-20T02:48:08;10.50;99.90
35970;DHT22;22448;51.298;6.430;2022-12-20T02:50:44;10.30;99.90
35970;DHT22;22448;51.298;6.430;2022-12-20T02:53:12;10.30;99.90
35970;DHT22;22448;51.298;6.430;2022-12-20T02:55:50;10.20;99.90
35970;DHT22;22448;51.298;6.430;2022-12-20T03:00:51;10.00;99.90
35970;DHT22;22448;51.298;6.430;2022-12-20T03:03:20;9.90;99.90
35970;DHT22;22448;51.298;6.430;2022-12-20T03:05:53;9.80;99.90
35970;DHT22;22448;51.298;6.430;2022-12-20T03:08:22;9.70;99.90
35970;DHT22;22448;51.298;6.430;2022-12-20T03:10:50;9.70;99.90
35970;DHT22;22448;51.298;6.430;2022-12-20T03:13:19;9.80;99.90
35970;DHT22;22448;51.298;6.430;2022-12-20T03:16:02;9.70;99.90
35970;DHT22;22448;51.298;6.430;2022-12-20T03:18:29;9.70;99.90
35970;DHT22;22448;51.298;6.430;2022-12-20T03:20:56;9.60;99.90
35970;DHT22;22448;51.298;6.430;2022-12-20T03:23:23;9.60;99.90
35970;DHT22;22448;51.298;6.430;2022-12-20T03:25:50;9.60;99.90
35970;DHT22;22448;51.298;6.430;2022-12-20T03:28:26;9.60;99.90
35970;DHT22;22448;51.298;6.430;2022-12-20T03:30:54;9.60;99.90
35970;DHT22;22448;51.298;6.430;2022-12-20T03:33:22;9.60;99.90
35970;DHT22;22448;51.298;6.430;2022-12-20T03:35:49;9.50;99.90
35970;DHT22;22448;51.298;6.430;2022-12-20T03:38:17;9.50;99.90
35970;DHT22;22448;51.298;6.430;2022-12-20T03:40:44;9.50;99.90
35970;DHT22;22448;51.298;6.430;2022-12-20T03:43:15;9.50;99.90
35970;DHT22;22448;51.298;6.430;2022-12-20T03:45:42;9.50;99.90
35970;DHT22;22448;51.298;6.430;2022-12-20T03:48:09;9.50;99.90
35970;DHT22;22448;51.298;6.430;2022-12-20T03:50:37;9.50;99.90
35970;DHT22;22448;51.298;6.430;2022-12-20T03:53:04;9.40;99.90
35970;DHT22;22448;51.298;6.430;2022-12-20T03:55:32;9.40;99.90
35970;DHT22;22448;51.298;6.430;2022-12-20T03:57:59;9.40;99.90
35970;DHT22;22448;51.298;6.430;2022-12-20T04:00:30;9.40;99.90
35970;DHT22;22448;51.298;6.430;2022-12-20T04:03:16;9.40;99.90
35970;DHT22;22448;51.298;6.430;2022-12-20T04:05:44;9.50;99.90
35970;DHT22;22448;51.298;6.430;2022-12-20T04:08:11;9.40;99.90
35970;DHT22;22448;51.298;6.430;2022-12-20T04:10:39;9.40;99.90
35970;DHT22;22448;51.298;6.430;2022-12-20T04:13:31;9.40;99.90
35970;DHT22;22448;51.298;6.430;2022-12-20T04:15:58;9.40;99.90
35970;DHT22;22448;51.298;6.430;2022-12-20T04:18:30;9.40;99.90
35970;DHT22;22448;51.298;6.430;2022-12-20T04:21:00;9.40;99.90
35970;DHT22;22448;51.298;6.430;2022-12-20T04:23:29;9.30;99.90
35970;DHT22;22448;51.298;6.430;2022-12-20T04:25:57;9.30;99.90
35970;DHT22;22448;51.298;6.430;2022-12-20T04:28:24;9.20;99.90
35970;DHT22;22448;51.298;6.430;2022-12-20T04:30:54;9.20;99.90
35970;DHT22;22448;51.298;6.430;2022-12-20T04:33:25;9.10;99.90
35970;DHT22;22448;51.298;6.430;2022-12-20T04:35:54;9.20;99.90
35970;DHT22;22448;51.298;6.430;2022-12-20T04:38:23;9.10;99.90
35970;DHT22;22448;51.298;6.430;2022-12-20T04:40:53;9.10;99.90
35970;DHT22;22448;51.298;6.430;2022-12-20T04:43:27;9.00;99.90
35970;DHT22;22448;51.298;6.430;2022-12-20T04:45:57;9.00;99.90
35970;DHT22;22448;51.298;6.430;2022-12-20T04:48:27;8.90;99.90
35970;DHT22;22448;51.298;6.430;2022-12-20T04:51:16;8.90;99.90
35970;DHT22;22448;51.298;6.430;2022-12-20T04:53:44;8.90;99.90
35970;DHT22;22448;51.298;6.430;2022-12-20T04:56:33;8.80;99.90
35970;DHT22;22448;51.298;6.430;2022-12-20T04:59:07;8.80;99.90
35970;DHT22;22448;51.298;6.430;2022-12-20T05:01:35;8.80;99.90
35970;DHT22;22448;51.298;6.430;2022-12-20T05:04:03;8.70;99.90
35970;DHT22;22448;51.298;6.430;2022-12-20T05:06:34;8.70;99.90
35970;DHT22;22448;51.298;6.430;2022-12-20T05:09:02;8.70;99.90
35970;DHT22;22448;51.298;6.430;2022-12-20T05:11:32;8.70;99.90
35970;DHT22;22448;51.298;6.430;2022-12-20T05:13:59;8.60;99.90
35970;DHT22;22448;51.298;6.430;2022-12-20T05:16:26;8.60;99.90
35970;DHT22;22448;51.298;6.430;2022-12-20T05:18:53;8.60;99.90
35970;DHT22;22448;51.298;6.430;2022-12-20T05:21:21;8.60;99.90
35970;DHT22;22448;51.298;6.430;2022-12-20T05:24:08;8.60;99.90
35970;DHT22;22448;51.298;6.430;2022-12-20T05:27:14;8.70;99.90
35970;DHT22;22448;51.298;6.430;2022-12-20T05:29:41;8.60;99.90
35970;DHT22;22448;51.298;6.430;2022-12-20T05:32:08;8.60;99.90
35970;DHT22;22448;51.298;6.430;2022-12-20T05:34:39;8.60;99.90
35970;DHT22;22448;51.298;6.430;2022-12-20T05:37:06;8.60;99.90
35970;DHT22;22448;51.298;6.430;2022-12-20T05:39:35;8.60;99.90
35970;DHT22;22448;51.298;6.430;2022-12-20T05:42:08;8.60;99.90
35970;DHT22;22448;51.298;6.430;2022-12-20T05:44:35;8.60;99.90
35970;DHT22;22448;51.298;6.430;2022-12-20T05:47:02;8.60;99.90
35970;DHT22;22448;51.298;6.430;2022-12-20T05:49:32;8.50;99.90
35970;DHT22;22448;51.298;6.430;2022-12-20T05:52:02;8.50;99.90
35970;DHT22;22448;51.298;6.430;2022-12-20T05:54:29;8.50;99.90
35970;DHT22;22448;51.298;6.430;2022-12-20T05:57:09;8.50;99.90
35970;DHT22;22448;51.298;6.430;2022-12-20T05:59:39;8.50;99.90
35970;DHT22;22448;51.298;6.430;2022-12-20T06:02:13;8.50;99.90
35970;DHT22;22448;51.298;6.430;2022-12-20T06:04:50;8.50;99.90
35970;DHT22;22448;51.298;6.430;2022-12-20T06:07:22;8.50;99.90
35970;DHT22;22448;51.298;6.430;2022-12-20T06:09:54;8.50;99.90
35970;DHT22;22448;51.298;6.430;2022-12-20T06:12:25;8.50;99.90
35970;DHT22;22448;51.298;6.430;2022-12-20T06:14:53;8.50;99.90
35970;DHT22;22448;51.298;6.430;2022-12-20T06:17:20;8.50;99.90
35970;DHT22;22448;51.298;6.430;2022-12-20T06:19:50;8.50;99.90
35970;DHT22;22448;51.298;6.430;2022-12-20T06:22:16;8.40;99.90
35970;DHT22;22448;51.298;6.430;2022-12-20T06:24:49;8.40;99.90
35970;DHT22;22448;51.298;6.430;2022-12-20T06:27:21;8.40;99.90
35970;DHT22;22448;51.298;6.430;2022-12-20T06:29:58;8.40;99.90
35970;DHT22;22448;51.298;6.430;2022-12-20T06:32:33;8.40;99.90
35970;DHT22;22448;51.298;6.430;2022-12-20T06:35:01;8.40;99.90
35970;DHT22;22448;51.298;6.430;2022-12-20T06:37:30;8.40;99.90
35970;DHT22;22448;51.298;6.430;2022-12-20T06:39:58;8.40;99.90
35970;DHT22;22448;51.298;6.430;2022-12-20T06:42:25;8.50;99.90
35970;DHT22;22448;51.298;6.430;2022-12-20T06:44:53;8.50;99.90
35970;DHT22;22448;51.298;6.430;2022-12-20T06:47:22;8.40;99.90
35970;DHT22;22448;51.298;6.430;2022-12-20T06:49:50;8.40;99.90
35970;DHT22;22448;51.298;6.430;2022-12-20T06:52:21;8.40;99.90
35970;DHT22;22448;51.298;6.430;2022-12-20T06:54:53;8.40;99.90
35970;DHT22;22448;51.298;6.430;2022-12-20T06:57:21;8.30;99.90
35970;DHT22;22448;51.298;6.430;2022-12-20T06:59:50;8.40;99.90
35970;DHT22;22448;51.298;6.430;2022-12-20T07:02:18;8.40;99.90
35970;DHT22;22448;51.298;6.430;2022-12-20T07:04:45;8.40;99.90
35970;DHT22;22448;51.298;6.430;2022-12-20T07:07:13;8.40;99.90
35970;DHT22;22448;51.298;6.430;2022-12-20T07:09:41;8.50;99.90
35970;DHT22;22448;51.298;6.430;2022-12-20T07:12:10;8.50;99.90
35970;DHT22;22448;51.298;6.430;2022-12-20T07:14:37;8.50;99.90
35970;DHT22;22448;51.298;6.430;2022-12-20T07:17:06;8.60;99.90
35970;DHT22;22448;51.298;6.430;2022-12-20T07:19:35;8.60;99.90
35970;DHT22;22448;51.298;6.430;2022-12-20T07:22:03;8.60;99.90
35970;DHT22;22448;51.298;6.430;2022-12-20T07:24:31;8.70;99.90
35970;DHT22;22448;51.298;6.430;2022-12-20T07:26:59;8.70;99.90
35970;DHT22;22448;51.298;6.430;2022-12-20T07:29:28;8.70;99.90
35970;DHT22;22448;51.298;6.430;2022-12-20T07:31:56;8.60;99.90
35970;DHT22;22448;51.298;6.430;2022-12-20T07:34:23;8.60;99.90
35970;DHT22;22448;51.298;6.430;2022-12-20T07:36:51;8.60;99.90
35970;DHT22;22448;51.298;6.430;2022-12-20T07:39:19;8.60;99.90
35970;DHT22;22448;51.298;6.430;2022-12-20T07:41:47;8.60;99.90
35970;DHT22;22448;51.298;6.430;2022-12-20T07:44:15;8.50;99.90
35970;DHT22;22448;51.298;6.430;2022-12-20T07:46:42;8.50;99.90
35970;DHT22;22448;51.298;6.430;2022-12-20T07:49:09;8.50;99.90
35970;DHT22;22448;51.298;6.430;2022-12-20T07:51:44;8.50;99.90
35970;DHT22;22448;51.298;6.430;2022-12-20T07:54:23;8.50;99.90
35970;DHT22;22448;51.298;6.430;2022-12-20T07:56:54;8.50;99.90
35970;DHT22;22448;51.298;6.430;2022-12-20T07:59:27;8.50;99.90
35970;DHT22;22448;51.298;6.430;2022-12-20T08:01:56;8.40;99.90
35970;DHT22;22448;51.298;6.430;2022-12-20T08:04:31;8.40;99.90
35970;DHT22;22448;51.298;6.430;2022-12-20T08:07:00;8.50;99.90
35970;DHT22;22448;51.298;6.430;2022-12-20T08:09:30;8.60;99.90
35970;DHT22;22448;51.298;6.430;2022-12-20T08:12:00;8.70;99.90
35970;DHT22;22448;51.298;6.430;2022-12-20T08:14:27;8.80;99.90
35970;DHT22;22448;51.298;6.430;2022-12-20T08:17:08;8.80;99.90
35970;DHT22;22448;51.298;6.430;2022-12-20T08:19:37;8.80;99.90
35970;DHT22;22448;51.298;6.430;2022-12-20T08:22:04;8.90;99.90
35970;DHT22;22448;51.298;6.430;2022-12-20T08:24:32;8.80;99.90
35970;DHT22;22448;51.298;6.430;2022-12-20T08:27:00;8.90;99.90
35970;DHT22;22448;51.298;6.430;2022-12-20T08:29:27;8.90;99.90
35970;DHT22;22448;51.298;6.430;2022-12-20T08:31:54;8.90;99.90
35970;DHT22;22448;51.298;6.430;2022-12-20T08:34:21;8.90;99.90
35970;DHT22;22448;51.298;6.430;2022-12-20T08:36:48;8.90;99.90
35970;DHT22;22448;51.298;6.430;2022-12-20T08:39:15;9.00;99.90
35970;DHT22;22448;51.298;6.430;2022-12-20T08:41:42;9.00;99.90
35970;DHT22;22448;51.298;6.430;2022-12-20T08:44:09;9.00;99.90
35970;DHT22;22448;51.298;6.430;2022-12-20T08:46:36;9.00;99.90
35970;DHT22;22448;51.298;6.430;2022-12-20T08:49:04;9.10;99.90
35970;DHT22;22448;51.298;6.430;2022-12-20T08:51:31;9.20;99.90
35970;DHT22;22448;51.298;6.430;2022-12-20T08:53:58;9.20;99.90
35970;DHT22;22448;51.298;6.430;2022-12-20T08:56:25;9.20;99.90
35970;DHT22;22448;51.298;6.430;2022-12-20T08:58:52;9.20;99.90
35970;DHT22;22448;51.298;6.430;2022-12-20T09:01:20;9.20;99.90
35970;DHT22;22448;51.298;6.430;2022-12-20T09:03:48;9.20;99.90
35970;DHT22;22448;51.298;6.430;2022-12-20T09:06:20;9.20;99.90
35970;DHT22;22448;51.298;6.430;2022-12-20T09:08:47;9.30;99.90
35970;DHT22;22448;51.298;6.430;2022-12-20T09:11:17;9.30;99.90
35970;DHT22;22448;51.298;6.430;2022-12-20T09:13:46;9.40;99.90
35970;DHT22;22448;51.298;6.430;2022-12-20T09:16:15;9.40;99.90
35970;DHT22;22448;51.298;6.430;2022-12-20T09:18:43;9.50;99.90
35970;DHT22;22448;51.298;6.430;2022-12-20T09:21:13;9.50;99.90
35970;DHT22;22448;51.298;6.430;2022-12-20T09:23:40;9.50;99.90
35970;DHT22;22448;51.298;6.430;2022-12-20T09:26:10;9.60;99.90
35970;DHT22;22448;51.298;6.430;2022-12-20T09:28:37;9.60;99.90
35970;DHT22;22448;51.298;6.430;2022-12-20T09:31:06;9.60;99.90
35970;DHT22;22448;51.298;6.430;2022-12-20T09:33:34;9.60;99.90
35970;DHT22;22448;51.298;6.430;2022-12-20T09:36:01;9.60;99.90
35970;DHT22;22448;51.298;6.430;2022-12-20T09:38:29;9.60;99.90
35970;DHT22;22448;51.298;6.430;2022-12-20T09:40:59;9.60;99.90
35970;DHT22;22448;51.298;6.430;2022-12-20T09:43:27;9.60;99.90
35970;DHT22;22448;51.298;6.430;2022-12-20T09:45:57;9.50;99.90
35970;DHT22;22448;51.298;6.430;2022-12-20T09:57:20;9.30;99.90
35970;DHT22;22448;51.298;6.430;2022-12-20T09:59:23;9.30;99.90
35970;DHT22;22448;51.298;6.430;2022-12-20T10:01:51;9.30;99.90
35970;DHT22;22448;51.298;6.430;2022-12-20T10:04:29;9.20;99.90
35970;DHT22;22448;51.298;6.430;2022-12-20T10:07:27;9.20;99.90
35970;DHT22;22448;51.298;6.430;2022-12-20T10:15:32;9.20;99.90
35970;DHT22;22448;51.298;6.430;2022-12-20T10:18:12;9.30;99.90
35970;DHT22;22448;51.298;6.430;2022-12-20T10:20:59;9.30;99.90
35970;DHT22;22448;51.298;6.430;2022-12-20T10:23:36;9.40;99.90
35970;DHT22;22448;51.298;6.430;2022-12-20T10:26:09;9.40;99.90
35970;DHT22;22448;51.298;6.430;2022-12-20T10:28:37;9.50;99.90
35970;DHT22;22448;51.298;6.430;2022-12-20T10:31:12;9.50;99.90
35970;DHT22;22448;51.298;6.430;2022-12-20T10:33:41;9.60;99.90
35970;DHT22;22448;51.298;6.430;2022-12-20T10:36:31;9.60;99.90
35970;DHT22;22448;51.298;6.430;2022-12-20T10:39:00;9.70;99.90
35970;DHT22;22448;51.298;6.430;2022-12-20T10:41:48;9.70;99.90
35970;DHT22;22448;51.298;6.430;2022-12-20T10:44:23;9.80;99.90
35970;DHT22;22448;51.298;6.430;2022-12-20T10:46:58;9.90;99.90
35970;DHT22;22448;51.298;6.430;2022-12-20T10:49:38;9.90;99.90
35970;DHT22;22448;51.298;6.430;2022-12-20T10:54:42;9.90;99.90
35970;DHT22;22448;51.298;6.430;2022-12-20T11:00:05;10.00;99.90
35970;DHT22;22448;51.298;6.430;2022-12-20T11:02:35;10.00;99.90
35970;DHT22;22448;51.298;6.430;2022-12-20T11:07:58;10.10;99.90
35970;DHT22;22448;51.298;6.430;2022-12-20T11:10:45;10.20;99.90
35970;DHT22;22448;51.298;6.430;2022-12-20T11:13:23;10.30;99.90
35970;DHT22;22448;51.298;6.430;2022-12-20T11:15:54;10.40;99.90
35970;DHT22;22448;51.298;6.430;2022-12-20T11:21:47;10.50;99.90
35970;DHT22;22448;51.298;6.430;2022-12-20T11:27:19;10.70;99.90
35970;DHT22;22448;51.298;6.430;2022-12-20T11:30:18;10.70;99.90
35970;DHT22;22448;51.298;6.430;2022-12-20T11:33:09;10.80;99.90
35970;DHT22;22448;51.298;6.430;2022-12-20T11:38:49;10.90;99.90
35970;DHT22;22448;51.298;6.430;2022-12-20T11:41:41;11.10;99.90
35970;DHT22;22448;51.298;6.430;2022-12-20T11:52:53;11.60;99.90
35970;DHT22;22448;51.298;6.430;2022-12-20T11:55:35;11.70;99.90
35970;DHT22;22448;51.298;6.430;2022-12-20T12:00:51;11.80;99.90
35970;DHT22;22448;51.298;6.430;2022-12-20T12:03:36;11.90;99.90
35970;DHT22;22448;51.298;6.430;2022-12-20T12:06:26;12.00;99.90
35970;DHT22;22448;51.298;6.430;2022-12-20T12:11:41;12.00;99.90
35970;DHT22;22448;51.298;6.430;2022-12-20T12:14:45;12.00;99.90
35970;DHT22;22448;51.298;6.430;2022-12-20T12:20:58;12.00;99.90
35970;DHT22;22448;51.298;6.430;2022-12-20T12:26:26;11.90;99.90
35970;DHT22;22448;51.298;6.430;2022-12-20T12:28:59;11.80;99.90
35970;DHT22;22448;51.298;6.430;2022-12-20T12:31:38;11.60;99.90
35970;DHT22;22448;51.298;6.430;2022-12-20T12:37:14;11.30;99.90
35970;DHT22;22448;51.298;6.430;2022-12-20T12:43:05;11.00;99.90
35970;DHT22;22448;51.298;6.430;2022-12-20T12:45:57;11.00;99.90
35970;DHT22;22448;51.298;6.430;2022-12-20T12:48:44;11.00;99.90
35970;DHT22;22448;51.298;6.430;2022-12-20T12:51:14;10.90;99.90
35970;DHT22;22448;51.298;6.430;2022-12-20T12:53:52;10.80;99.90
35970;DHT22;22448;51.298;6.430;2022-12-20T12:59:25;10.80;99.90
35970;DHT22;22448;51.298;6.430;2022-12-20T13:02:26;10.70;99.90
35970;DHT22;22448;51.298;6.430;2022-12-20T13:10:01;10.60;99.90
35970;DHT22;22448;51.298;6.430;2022-12-20T13:15:45;10.50;99.90
35970;DHT22;22448;51.298;6.430;2022-12-20T13:18:22;10.40;99.90
35970;DHT22;22448;51.298;6.430;2022-12-20T13:21:15;10.40;99.90
35970;DHT22;22448;51.298;6.430;2022-12-20T13:23:43;10.40;99.90
35970;DHT22;22448;51.298;6.430;2022-12-20T13:26:46;10.40;99.90
35970;DHT22;22448;51.298;6.430;2022-12-20T13:29:26;10.30;99.90
35970;DHT22;22448;51.298;6.430;2022-12-20T13:31:53;10.30;99.90
35970;DHT22;22448;51.298;6.430;2022-12-20T13:34:42;10.30;99.90
35970;DHT22;22448;51.298;6.430;2022-12-20T13:37:29;10.30;99.90
35970;DHT22;22448;51.298;6.430;2022-12-20T13:40:42;10.20;99.90
35970;DHT22;22448;51.298;6.430;2022-12-20T13:43:28;10.20;99.90
35970;DHT22;22448;51.298;6.430;2022-12-20T13:48:58;10.20;99.90
35970;DHT22;22448;51.298;6.430;2022-12-20T13:51:26;10.10;99.90
35970;DHT22;22448;51.298;6.430;2022-12-20T13:54:02;10.10;99.90
35970;DHT22;22448;51.298;6.430;2022-12-20T13:56:49;10.10;99.90
35970;DHT22;22448;51.298;6.430;2022-12-20T13:59:29;10.10;99.90
35970;DHT22;22448;51.298;6.430;2022-12-20T14:02:01;10.10;99.90
35970;DHT22;22448;51.298;6.430;2022-12-20T14:04:44;10.10;99.90
35970;DHT22;22448;51.298;6.430;2022-12-20T14:07:15;10.10;99.90
35970;DHT22;22448;51.298;6.430;2022-12-20T14:09:45;10.00;99.90
35970;DHT22;22448;51.298;6.430;2022-12-20T14:12:16;10.00;99.90
35970;DHT22;22448;51.298;6.430;2022-12-20T14:14:51;10.00;99.90
35970;DHT22;22448;51.298;6.430;2022-12-20T14:17:32;10.00;99.90
35970;DHT22;22448;51.298;6.430;2022-12-20T14:20:12;10.00;99.90
35970;DHT22;22448;51.298;6.430;2022-12-20T14:23:03;10.00;99.90
35970;DHT22;22448;51.298;6.430;2022-12-20T14:25:37;10.00;99.90
35970;DHT22;22448;51.298;6.430;2022-12-20T14:28:40;10.00;99.90
35970;DHT22;22448;51.298;6.430;2022-12-20T14:36:40;9.90;99.90
35970;DHT22;22448;51.298;6.430;2022-12-20T14:39:32;10.00;99.90
35970;DHT22;22448;51.298;6.430;2022-12-20T14:44:36;10.00;99.90
35970;DHT22;22448;51.298;6.430;2022-12-20T14:47:24;10.00;99.90
35970;DHT22;22448;51.298;6.430;2022-12-20T14:50:00;10.00;99.90
35970;DHT22;22448;51.298;6.430;2022-12-20T14:55:01;10.00;99.90
35970;DHT22;22448;51.298;6.430;2022-12-20T15:00:21;10.00;99.90
35970;DHT22;22448;51.298;6.430;2022-12-20T15:08:25;10.00;99.90
35970;DHT22;22448;51.298;6.430;2022-12-20T15:13:40;9.90;99.90
35970;DHT22;22448;51.298;6.430;2022-12-20T15:16:18;9.90;99.90
35970;DHT22;22448;51.298;6.430;2022-12-20T15:18:47;9.90;99.90
35970;DHT22;22448;51.298;6.430;2022-12-20T15:21:34;9.90;99.90
35970;DHT22;22448;51.298;6.430;2022-12-20T15:24:07;9.90;99.90
35970;DHT22;22448;51.298;6.430;2022-12-20T15:26:36;9.80;99.90
35970;DHT22;22448;51.298;6.430;2022-12-20T15:29:03;9.80;99.90
35970;DHT22;22448;51.298;6.430;2022-12-20T15:31:32;9.80;99.90
35970;DHT22;22448;51.298;6.430;2022-12-20T15:34:17;9.80;99.90
35970;DHT22;22448;51.298;6.430;2022-12-20T15:36:45;9.80;99.90
35970;DHT22;22448;51.298;6.430;2022-12-20T15:39:12;9.80;99.90
35970;DHT22;22448;51.298;6.430;2022-12-20T15:41:43;9.70;99.90
35970;DHT22;22448;51.298;6.430;2022-12-20T15:44:26;9.70;99.90
35970;DHT22;22448;51.298;6.430;2022-12-20T15:46:54;9.70;99.90
35970;DHT22;22448;51.298;6.430;2022-12-20T15:49:24;9.70;99.90
35970;DHT22;22448;51.298;6.430;2022-12-20T15:51:52;9.80;99.90
35970;DHT22;22448;51.298;6.430;2022-12-20T15:54:21;9.80;99.90
35970;DHT22;22448;51.298;6.430;2022-12-20T15:56:50;9.80;99.90
35970;DHT22;22448;51.298;6.430;2022-12-20T15:59:17;9.80;99.90
35970;DHT22;22448;51.298;6.430;2022-12-20T16:02:25;9.80;99.90
35970;DHT22;22448;51.298;6.430;2022-12-20T16:04:53;9.80;99.90
35970;DHT22;22448;51.298;6.430;2022-12-20T16:07:21;9.80;99.90
35970;DHT22;22448;51.298;6.430;2022-12-20T16:09:48;9.80;99.90
35970;DHT22;22448;51.298;6.430;2022-12-20T16:12:18;9.80;99.90
35970;DHT22;22448;51.298;6.430;2022-12-20T16:14:46;9.80;99.90
35970;DHT22;22448;51.298;6.430;2022-12-20T16:17:14;9.80;99.90
35970;DHT22;22448;51.298;6.430;2022-12-20T16:19:42;9.80;99.90
35970;DHT22;22448;51.298;6.430;2022-12-20T16:22:20;9.70;99.90
35970;DHT22;22448;51.298;6.430;2022-12-20T16:24:52;9.70;99.90
35970;DHT22;22448;51.298;6.430;2022-12-20T16:27:19;9.70;99.90
35970;DHT22;22448;51.298;6.430;2022-12-20T16:29:46;9.70;99.90
35970;DHT22;22448;51.298;6.430;2022-12-20T16:32:15;9.70;99.90
35970;DHT22;22448;51.298;6.430;2022-12-20T16:34:43;9.70;99.90
35970;DHT22;22448;51.298;6.430;2022-12-20T16:37:10;9.70;99.90
35970;DHT22;22448;51.298;6.430;2022-12-20T16:39:38;9.70;99.90
35970;DHT22;22448;51.298;6.430;2022-12-20T16:42:13;9.70;99.90
35970;DHT22;22448;51.298;6.430;2022-12-20T16:44:41;9.70;99.90
35970;DHT22;22448;51.298;6.430;2022-12-20T16:47:10;9.70;99.90
35970;DHT22;22448;51.298;6.430;2022-12-20T16:49:38;9.70;99.90
35970;DHT22;22448;51.298;6.430;2022-12-20T16:52:14;9.70;99.90
35970;DHT22;22448;51.298;6.430;2022-12-20T16:54:42;9.70;99.90
35970;DHT22;22448;51.298;6.430;2022-12-20T16:57:09;9.70;99.90
35970;DHT22;22448;51.298;6.430;2022-12-20T16:59:36;9.70;99.90
35970;DHT22;22448;51.298;6.430;2022-12-20T17:02:26;9.70;99.90
35970;DHT22;22448;51.298;6.430;2022-12-20T17:04:54;9.70;99.90
35970;DHT22;22448;51.298;6.430;2022-12-20T17:07:21;9.60;99.90
35970;DHT22;22448;51.298;6.430;2022-12-20T17:09:48;9.60;99.90
35970;DHT22;22448;51.298;6.430;2022-12-20T17:12:20;9.60;99.90
35970;DHT22;22448;51.298;6.430;2022-12-20T17:14:48;9.60;99.90
35970;DHT22;22448;51.298;6.430;2022-12-20T17:17:15;9.60;99.90
35970;DHT22;22448;51.298;6.430;2022-12-20T17:19:42;9.60;99.90
35970;DHT22;22448;51.298;6.430;2022-12-20T17:22:10;9.60;99.90
35970;DHT22;22448;51.298;6.430;2022-12-20T17:24:55;9.60;99.90
35970;DHT22;22448;51.298;6.430;2022-12-20T17:27:22;9.60;99.90
35970;DHT22;22448;51.298;6.430;2022-12-20T17:29:49;9.60;99.90
35970;DHT22;22448;51.298;6.430;2022-12-20T17:32:22;9.60;99.90
35970;DHT22;22448;51.298;6.430;2022-12-20T17:34:49;9.60;99.90
35970;DHT22;22448;51.298;6.430;2022-12-20T17:37:17;9.60;99.90
35970;DHT22;22448;51.298;6.430;2022-12-20T17:39:44;9.60;99.90
35970;DHT22;22448;51.298;6.430;2022-12-20T17:42:14;9.60;99.90
35970;DHT22;22448;51.298;6.430;2022-12-20T17:44:42;9.60;99.90
35970;DHT22;22448;51.298;6.430;2022-12-20T17:47:09;9.60;99.90
35970;DHT22;22448;51.298;6.430;2022-12-20T17:49:37;9.60;99.90
35970;DHT22;22448;51.298;6.430;2022-12-20T17:52:04;9.60;99.90
35970;DHT22;22448;51.298;6.430;2022-12-20T17:54:31;9.60;99.90
35970;DHT22;22448;51.298;6.430;2022-12-20T17:57:14;9.60;99.90
35970;DHT22;22448;51.298;6.430;2022-12-20T17:59:41;9.60;99.90
35970;DHT22;22448;51.298;6.430;2022-12-20T18:02:18;9.50;99.90
35970;DHT22;22448;51.298;6.430;2022-12-20T18:04:46;9.50;99.90